Time;durP1;ratioP1;P1;durP2;ratioP2;P2;SDS_P1;SDS_P2;PMS_P1;PMS_P2;Temp;Humidity;BMP_temperature;BMP_pressure;BME280_temperature;BME280_humidity;BME280_pressure;Samples;Min_cycle;Max_cycle;Signal;HPM_P1;HPM_P2
2022/10/19 00:00:55;;;;;;;11.95;2.13;;;12.30;99.90;;;;;;5074050;28;20127;-59
2022/10/19 00:03:22;;;;;;;14.57;2.38;;;12.30;99.90;;;;;;5075517;28;20098;-59
2022/10/19 00:05:49;;;;;;;10.55;2.08;;;12.30;99.90;;;;;;5075139;28;20047;-57
2022/10/19 00:08:16;;;;;;;13.65;2.50;;;12.30;99.90;;;;;;5074268;28;20480;-56
2022/10/19 00:10:42;;;;;;;9.15;1.98;;;12.30;99.90;;;;;;5075669;28;20036;-58
2022/10/19 00:13:09;;;;;;;13.88;2.25;;;12.30;99.90;;;;;;5075098;28;20036;-59
2022/10/19 00:15:36;;;;;;;11.13;1.60;;;12.30;99.90;;;;;;5074290;28;20052;-59
2022/10/19 00:18:03;;;;;;;11.63;2.28;;;12.30;99.90;;;;;;5074272;28;20058;-59
2022/10/19 00:20:30;;;;;;;13.57;2.10;;;12.30;99.90;;;;;;5075101;28;20055;-59
2022/10/19 00:22:56;;;;;;;13.73;2.40;;;12.30;99.90;;;;;;5075000;28;20067;-57
2022/10/19 00:25:23;;;;;;;12.27;2.03;;;12.20;99.90;;;;;;5074649;28;20056;-52
2022/10/19 00:27:50;;;;;;;13.50;2.33;;;12.20;99.90;;;;;;5074875;28;20155;-55
2022/10/19 00:30:17;;;;;;;11.40;2.20;;;12.20;99.90;;;;;;5075268;28;20075;-59
2022/10/19 00:32:44;;;;;;;12.68;2.00;;;12.20;99.90;;;;;;5073938;28;20086;-56
2022/10/19 00:35:11;;;;;;;17.98;2.60;;;12.20;99.90;;;;;;5074538;28;20083;-59
2022/10/19 00:37:38;;;;;;;9.95;1.92;;;12.20;99.90;;;;;;5074747;28;20119;-58
2022/10/19 00:40:04;;;;;;;12.35;2.03;;;12.20;99.90;;;;;;5074603;28;20102;-57
2022/10/19 00:42:31;;;;;;;12.27;2.38;;;12.20;99.90;;;;;;5074872;28;20090;-56
2022/10/19 00:44:58;;;;;;;13.23;2.20;;;12.20;99.90;;;;;;5074654;28;20063;-57
2022/10/19 00:47:25;;;;;;;13.48;2.42;;;12.10;99.90;;;;;;5074184;28;20459;-57
2022/10/19 00:49:52;;;;;;;15.00;2.90;;;12.10;99.90;;;;;;5074619;28;20086;-57
2022/10/19 00:52:19;;;;;;;13.32;2.45;;;12.10;99.90;;;;;;5073044;28;20075;-58
2022/10/19 00:54:46;;;;;;;8.00;1.95;;;12.10;99.90;;;;;;5074557;28;20041;-57
2022/10/19 00:57:13;;;;;;;16.58;2.63;;;12.10;99.90;;;;;;5073203;28;20044;-58
2022/10/19 00:59:39;;;;;;;8.73;1.85;;;12.10;99.90;;;;;;5074257;28;20093;-54
2022/10/19 01:02:06;;;;;;;13.18;2.33;;;12.10;99.90;;;;;;5074307;28;20135;-59
2022/10/19 01:04:33;;;;;;;13.65;2.42;;;12.10;99.90;;;;;;5074054;28;20045;-60
2022/10/19 01:07:00;;;;;;;11.52;2.33;;;12.10;99.90;;;;;;5073955;28;20047;-55
2022/10/19 01:09:27;;;;;;;12.65;3.05;;;12.10;99.90;;;;;;5074366;28;20033;-55
2022/10/19 01:11:53;;;;;;;19.17;2.97;;;12.10;99.90;;;;;;5074028;28;20037;-56
2022/10/19 01:14:20;;;;;;;15.88;3.15;;;12.00;99.90;;;;;;5074175;28;20062;-57
2022/10/19 01:16:47;;;;;;;15.40;3.40;;;12.00;99.90;;;;;;5074091;28;20052;-56
2022/10/19 01:19:14;;;;;;;11.85;2.78;;;12.00;99.90;;;;;;5074017;28;20064;-59
2022/10/19 01:21:41;;;;;;;18.80;5.65;;;12.10;99.90;;;;;;5073018;28;20045;-54
2022/10/19 01:24:08;;;;;;;15.48;3.50;;;12.00;99.90;;;;;;5073737;28;20041;-57
2022/10/19 01:26:34;;;;;;;13.80;2.90;;;12.10;99.90;;;;;;5073944;28;20131;-57
2022/10/19 01:29:01;;;;;;;18.70;3.80;;;12.00;99.90;;;;;;5073948;28;20105;-56
2022/10/19 01:31:28;;;;;;;18.58;3.22;;;12.00;99.90;;;;;;5072892;28;20068;-57
2022/10/19 01:33:55;;;;;;;14.35;3.42;;;12.00;99.90;;;;;;5074110;28;20032;-55
2022/10/19 01:36:26;;;;;;;15.73;2.80;;;12.00;99.90;;;;;;5073960;28;20133;-58
2022/10/19 01:38:53;;;;;;;11.90;2.95;;;12.00;99.90;;;;;;5073800;28;20039;-59
2022/10/19 01:41:20;;;;;;;16.30;3.03;;;12.00;99.90;;;;;;5073605;28;20040;-59
2022/10/19 01:43:47;;;;;;;9.45;2.83;;;12.00;99.90;;;;;;5073598;28;20048;-59
2022/10/19 01:46:14;;;;;;;13.40;2.70;;;12.10;99.90;;;;;;5072255;28;20044;-57
2022/10/19 01:48:40;;;;;;;12.25;2.40;;;12.00;99.90;;;;;;5073574;28;20041;-56
2022/10/19 01:51:07;;;;;;;18.95;3.10;;;12.00;99.90;;;;;;5073600;28;20041;-55
2022/10/19 01:53:34;;;;;;;13.43;2.10;;;12.00;99.90;;;;;;5073474;28;20037;-56
2022/10/19 01:56:01;;;;;;;16.92;2.33;;;12.10;99.90;;;;;;5073582;28;20479;-56
2022/10/19 01:58:27;;;;;;;10.70;2.33;;;12.00;99.90;;;;;;5073273;28;20094;-52
2022/10/19 02:00:54;;;;;;;16.63;2.28;;;12.00;99.90;;;;;;5073938;28;20040;-59
2022/10/19 02:03:21;;;;;;;10.60;2.22;;;12.00;99.90;;;;;;5073379;28;20137;-54
2022/10/19 02:05:48;;;;;;;12.73;2.22;;;12.00;99.90;;;;;;5073360;28;20050;-56
2022/10/19 02:08:15;;;;;;;12.00;2.25;;;12.00;99.90;;;;;;5073535;28;20086;-56
2022/10/19 02:10:41;;;;;;;11.52;2.08;;;12.00;99.90;;;;;;5073313;28;20064;-58
2022/10/19 02:13:08;;;;;;;9.13;1.85;;;12.00;99.90;;;;;;5073255;28;20089;-55
2022/10/19 02:15:35;;;;;;;8.85;1.88;;;12.00;99.90;;;;;;5071987;28;20123;-55
2022/10/19 02:18:02;;;;;;;15.57;2.50;;;12.00;99.90;;;;;;5073409;28;20119;-57
2022/10/19 02:20:29;;;;;;;12.55;2.08;;;12.00;99.90;;;;;;5071980;28;20041;-55
2022/10/19 02:22:55;;;;;;;12.95;2.53;;;12.00;99.90;;;;;;5073922;28;20072;-55
2022/10/19 02:25:22;;;;;;;13.23;1.90;;;12.00;99.90;;;;;;5072918;28;20071;-56
2022/10/19 02:27:51;;;;;;;10.32;2.13;;;12.00;99.90;;;;;;5073615;28;20051;-59
2022/10/19 02:30:18;;;;;;;11.38;2.15;;;12.00;99.90;;;;;;5073607;28;20045;-58
2022/10/19 02:32:44;;;;;;;11.27;2.10;;;12.10;99.90;;;;;;5073171;28;20074;-57
2022/10/19 02:35:11;;;;;;;10.45;2.20;;;12.00;99.90;;;;;;5073179;28;20079;-57
2022/10/19 02:37:39;;;;;;;12.50;2.03;;;12.10;99.90;;;;;;5073226;28;20115;-57
2022/10/19 02:40:06;;;;;;;14.77;1.90;;;12.00;99.90;;;;;;5073480;28;20533;-56
2022/10/19 02:42:32;;;;;;;11.55;1.80;;;12.10;99.90;;;;;;5072006;28;20391;-57
2022/10/19 02:45:00;;;;;;;11.07;2.30;;;12.10;99.90;;;;;;5073522;28;20045;-58
2022/10/19 02:47:26;;;;;;;11.60;2.00;;;12.10;99.90;;;;;;5073573;28;20471;-60
2022/10/19 02:49:53;;;;;;;16.17;2.17;;;12.10;99.90;;;;;;5073415;28;20033;-58
2022/10/19 02:52:20;;;;;;;11.10;2.38;;;12.10;99.90;;;;;;5072958;28;20114;-58
2022/10/19 02:54:46;;;;;;;13.15;1.90;;;12.10;99.90;;;;;;5073796;28;20082;-57
2022/10/19 02:57:13;;;;;;;11.35;2.10;;;12.10;99.90;;;;;;5073769;28;20064;-59
2022/10/19 02:59:40;;;;;;;13.48;2.40;;;12.10;99.90;;;;;;5073236;28;20453;-57
2022/10/19 03:02:07;;;;;;;12.05;2.40;;;12.10;99.90;;;;;;5072709;28;20131;-56
2022/10/19 03:04:33;;;;;;;12.57;2.17;;;12.00;99.90;;;;;;5073082;28;20043;-57
2022/10/19 03:07:00;;;;;;;9.82;2.53;;;12.10;99.90;;;;;;5073043;28;20055;-57
2022/10/19 03:09:27;;;;;;;13.20;2.72;;;12.10;99.90;;;;;;5074398;28;20420;-59
2022/10/19 03:11:53;;;;;;;13.82;3.15;;;12.10;99.90;;;;;;5076527;28;20079;-58
2022/10/19 03:14:20;;;;;;;13.63;2.35;;;12.10;99.90;;;;;;5076440;28;20397;-57
2022/10/19 03:16:47;;;;;;;10.90;2.13;;;12.10;99.90;;;;;;5076601;28;20041;-59
2022/10/19 03:19:14;;;;;;;16.13;2.53;;;12.10;99.90;;;;;;5076468;28;20140;-59
2022/10/19 03:21:40;;;;;;;16.50;2.28;;;12.00;99.90;;;;;;5076657;28;20109;-58
2022/10/19 03:24:07;;;;;;;14.38;2.38;;;12.10;99.90;;;;;;5076410;28;20040;-54
2022/10/19 03:26:34;;;;;;;14.40;2.80;;;12.10;99.90;;;;;;5076602;28;20522;-58
2022/10/19 03:29:00;;;;;;;16.95;2.65;;;12.10;99.90;;;;;;5076110;28;20036;-57
2022/10/19 03:31:27;;;;;;;18.92;2.58;;;12.10;99.90;;;;;;5076301;28;20045;-58
2022/10/19 03:33:54;;;;;;;17.77;3.42;;;12.00;99.90;;;;;;5076066;28;20133;-57
2022/10/19 03:36:21;;;;;;;17.38;2.90;;;12.10;99.90;;;;;;5076328;28;20041;-57
2022/10/19 03:38:48;;;;;;;14.07;2.28;;;12.10;99.90;;;;;;5075999;28;20075;-59
2022/10/19 03:41:14;;;;;;;18.02;3.42;;;12.10;99.90;;;;;;5075879;28;20079;-59
2022/10/19 03:43:41;;;;;;;17.00;2.88;;;12.10;99.90;;;;;;5075756;28;20127;-55
2022/10/19 03:46:08;;;;;;;14.40;2.42;;;12.10;99.90;;;;;;5075822;28;20127;-58
2022/10/19 03:48:35;;;;;;;16.08;2.97;;;12.00;99.90;;;;;;5075979;28;20037;-57
2022/10/19 03:51:01;;;;;;;14.43;2.53;;;12.10;99.90;;;;;;5075716;28;20040;-57
2022/10/19 03:53:30;;;;;;;10.55;2.13;;;12.00;99.90;;;;;;5076118;28;20230;-59
2022/10/19 03:55:58;;;;;;;11.27;2.45;;;12.10;99.90;;;;;;5075733;28;20051;-58
2022/10/19 03:58:25;;;;;;;13.55;2.60;;;12.10;99.90;;;;;;5074593;28;20443;-57
2022/10/19 04:00:52;;;;;;;17.20;2.35;;;12.00;99.90;;;;;;5075834;28;20388;-60
2022/10/19 04:03:19;;;;;;;15.00;2.90;;;12.10;99.90;;;;;;5075649;28;20484;-58
2022/10/19 04:05:45;;;;;;;12.48;2.47;;;12.10;99.90;;;;;;5075733;28;20131;-57
2022/10/19 04:08:12;;;;;;;17.35;2.72;;;12.10;99.90;;;;;;5075786;28;20068;-59
2022/10/19 04:10:39;;;;;;;16.58;3.08;;;12.10;99.90;;;;;;5075201;28;20037;-59
2022/10/19 04:13:05;;;;;;;18.33;3.42;;;12.10;99.90;;;;;;5075270;28;20450;-57
2022/10/19 04:15:32;;;;;;;12.95;3.08;;;12.10;99.90;;;;;;5075090;28;20041;-59
2022/10/19 04:17:59;;;;;;;16.63;2.92;;;12.10;99.90;;;;;;5075062;28;20040;-58
2022/10/19 04:20:26;;;;;;;15.50;2.67;;;12.00;99.90;;;;;;5075204;28;20075;-57
2022/10/19 04:22:52;;;;;;;12.07;2.38;;;12.10;99.90;;;;;;5075063;28;20049;-59
2022/10/19 04:25:19;;;;;;;18.30;2.58;;;12.10;99.90;;;;;;5074755;28;20040;-58
2022/10/19 04:27:46;;;;;;;16.52;2.67;;;12.10;99.90;;;;;;5074786;28;20492;-59
2022/10/19 04:30:12;;;;;;;14.48;2.33;;;12.10;99.90;;;;;;5074806;28;20032;-58
2022/10/19 04:32:39;;;;;;;16.48;2.72;;;12.10;99.90;;;;;;5075171;28;20044;-54
2022/10/19 04:35:06;;;;;;;15.30;2.97;;;12.10;99.90;;;;;;5074633;28;20040;-57
2022/10/19 04:37:33;;;;;;;17.77;2.75;;;12.10;99.90;;;;;;5074571;28;20086;-60
2022/10/19 04:40:00;;;;;;;16.30;2.90;;;12.10;99.90;;;;;;5074957;28;20040;-57
2022/10/19 04:42:27;;;;;;;16.73;3.00;;;12.10;99.90;;;;;;5074821;28;20074;-58
2022/10/19 04:44:53;;;;;;;12.38;2.83;;;12.10;99.90;;;;;;5074796;28;20060;-58
2022/10/19 04:47:20;;;;;;;17.15;3.03;;;12.10;99.90;;;;;;5074602;28;20140;-58
2022/10/19 04:49:47;;;;;;;17.15;3.38;;;12.10;99.90;;;;;;5074612;28;20120;-58
2022/10/19 04:52:14;;;;;;;15.48;2.90;;;12.10;99.90;;;;;;5074364;28;20062;-56
2022/10/19 04:54:41;;;;;;;15.60;2.90;;;12.10;99.90;;;;;;5074431;28;20422;-59
2022/10/19 04:57:07;;;;;;;18.25;3.25;;;12.10;99.90;;;;;;5074767;28;20106;-59
2022/10/19 04:59:34;;;;;;;20.50;3.92;;;12.10;99.90;;;;;;5074229;28;20052;-55
2022/10/19 05:02:01;;;;;;;16.42;3.13;;;12.10;99.90;;;;;;5074119;28;20419;-58
2022/10/19 05:04:28;;;;;;;14.18;3.00;;;12.10;99.90;;;;;;5074351;28;20044;-57
2022/10/19 05:06:55;;;;;;;20.67;3.80;;;12.10;99.90;;;;;;5074023;28;20051;-60
2022/10/19 05:09:21;;;;;;;23.50;3.33;;;12.10;99.90;;;;;;5074119;28;20088;-59
2022/10/19 05:11:49;;;;;;;20.63;3.42;;;12.10;99.90;;;;;;5074191;28;20044;-58
2022/10/19 05:14:16;;;;;;;27.85;4.13;;;12.10;99.90;;;;;;5072808;28;20036;-60
2022/10/19 05:16:42;;;;;;;20.70;3.78;;;12.10;99.90;;;;;;5072754;28;20044;-59
2022/10/19 05:19:09;;;;;;;21.17;3.70;;;12.10;99.90;;;;;;5074204;28;20388;-59
2022/10/19 05:21:36;;;;;;;18.85;4.75;;;12.10;99.90;;;;;;5074124;28;20048;-56
2022/10/19 05:24:02;;;;;;;19.00;4.45;;;12.10;99.90;;;;;;5073745;28;20090;-60
2022/10/19 05:26:29;;;;;;;17.40;3.67;;;12.10;99.90;;;;;;5074043;28;20517;-59
2022/10/19 05:28:56;;;;;;;20.48;4.05;;;12.10;99.90;;;;;;5073827;28;20453;-60
2022/10/19 05:31:23;;;;;;;23.45;4.22;;;12.10;99.90;;;;;;5073886;28;20487;-59
2022/10/19 05:33:50;;;;;;;22.80;3.85;;;12.10;99.90;;;;;;5073587;28;20040;-58
2022/10/19 05:36:20;;;;;;;21.92;4.18;;;12.00;99.90;;;;;;5073846;28;20068;-59
2022/10/19 05:38:47;;;;;;;15.60;4.03;;;12.10;99.90;;;;;;5073903;28;20041;-58
2022/10/19 05:41:13;;;;;;;22.90;4.53;;;12.10;99.90;;;;;;5073972;28;20041;-60
2022/10/19 05:43:40;;;;;;;22.48;4.60;;;12.10;99.90;;;;;;5074034;28;20432;-58
2022/10/19 05:46:07;;;;;;;18.23;4.32;;;12.00;99.90;;;;;;5073338;28;20037;-57
2022/10/19 05:48:34;;;;;;;17.23;4.28;;;12.10;99.90;;;;;;5073591;28;20060;-58
2022/10/19 05:51:01;;;;;;;22.38;5.10;;;12.10;99.90;;;;;;5074121;28;20468;-60
2022/10/19 05:53:28;;;;;;;19.33;4.40;;;12.10;99.90;;;;;;5074175;28;20523;-56
2022/10/19 05:55:55;;;;;;;22.50;4.75;;;12.10;99.90;;;;;;5074320;28;20446;-58
2022/10/19 05:58:22;;;;;;;18.00;4.65;;;12.10;99.90;;;;;;5072200;28;20487;-59
2022/10/19 06:00:48;;;;;;;20.77;4.32;;;12.10;99.90;;;;;;5073883;28;20097;-56
2022/10/19 06:03:16;;;;;;;20.63;4.53;;;12.10;99.90;;;;;;5073103;28;20143;-59
2022/10/19 06:05:43;;;;;;;22.92;4.75;;;12.10;99.90;;;;;;5073383;28;20041;-58
2022/10/19 06:08:09;;;;;;;21.70;5.40;;;12.10;99.90;;;;;;5073583;28;20068;-57
2022/10/19 06:10:36;;;;;;;18.92;4.20;;;12.10;99.90;;;;;;5073785;28;20044;-56
2022/10/19 06:13:03;;;;;;;23.50;4.25;;;12.10;99.90;;;;;;5073473;28;20066;-58
2022/10/19 06:15:30;;;;;;;19.92;4.28;;;12.10;99.90;;;;;;5072520;28;20071;-57
2022/10/19 06:17:56;;;;;;;20.40;4.53;;;12.10;99.90;;;;;;5073359;28;20033;-58
2022/10/19 06:20:25;;;;;;;22.50;4.53;;;12.20;99.90;;;;;;5073425;28;20059;-59
2022/10/19 06:22:52;;;;;;;21.92;4.60;;;12.20;99.90;;;;;;5073391;28;20049;-59
2022/10/19 06:25:19;;;;;;;25.52;4.65;;;12.20;99.90;;;;;;5073143;28;20076;-59
2022/10/19 06:27:46;;;;;;;20.52;4.63;;;12.20;99.90;;;;;;5072665;28;20071;-57
2022/10/19 06:30:13;;;;;;;22.80;5.60;;;12.20;99.90;;;;;;5071729;28;20487;-59
2022/10/19 06:32:39;;;;;;;23.63;4.78;;;12.20;99.90;;;;;;5073260;28;20040;-57
2022/10/19 06:35:06;;;;;;;21.48;4.68;;;12.20;99.90;;;;;;5071791;28;20064;-58
2022/10/19 06:37:33;;;;;;;21.30;5.20;;;12.30;99.90;;;;;;5072964;28;20070;-60
2022/10/19 06:40:00;;;;;;;22.83;5.13;;;12.30;99.90;;;;;;5073058;28;20086;-59
2022/10/19 06:42:32;;;;;;;26.52;5.15;;;12.30;99.90;;;;;;5071701;28;20048;-59
2022/10/19 06:44:59;;;;;;;26.90;6.32;;;12.30;99.90;;;;;;5074602;28;20487;-58
2022/10/19 06:47:30;;;;;;;21.90;5.38;;;12.30;99.90;;;;;;5076040;28;20086;-59
2022/10/19 06:49:57;;;;;;;29.23;5.55;;;12.30;99.90;;;;;;5076851;28;20124;-56
2022/10/19 06:52:23;;;;;;;23.55;5.40;;;12.30;99.90;;;;;;5076803;28;20044;-57
2022/10/19 06:54:50;;;;;;;24.88;5.38;;;12.30;99.90;;;;;;5076430;28;20037;-54
2022/10/19 06:57:17;;;;;;;24.20;5.00;;;12.40;99.90;;;;;;5075883;28;20044;-55
2022/10/19 06:59:43;;;;;;;21.48;5.28;;;12.40;99.90;;;;;;5076684;28;20070;-58
2022/10/19 07:02:10;;;;;;;25.45;5.15;;;12.40;99.90;;;;;;5075159;28;20395;-59
2022/10/19 07:04:37;;;;;;;21.30;4.10;;;12.40;99.90;;;;;;5076227;28;20040;-58
2022/10/19 07:07:04;;;;;;;21.60;4.65;;;12.40;99.90;;;;;;5076408;28;20136;-56
2022/10/19 07:09:30;;;;;;;20.90;4.28;;;12.40;99.90;;;;;;5076615;28;20090;-59
2022/10/19 07:11:57;;;;;;;25.05;5.22;;;12.50;99.90;;;;;;5076231;28;20047;-57
2022/10/19 07:14:27;;;;;;;20.75;4.20;;;12.50;99.90;;;;;;5076106;28;20037;-57
2022/10/19 07:16:53;;;;;;;24.30;5.05;;;12.50;99.90;;;;;;5076064;28;20047;-58
2022/10/19 07:19:20;;;;;;;21.05;5.65;;;12.50;99.90;;;;;;5076597;28;20044;-59
2022/10/19 07:21:47;;;;;;;21.27;3.90;;;12.60;99.90;;;;;;5076216;28;20047;-56
2022/10/19 07:24:14;;;;;;;21.52;3.95;;;12.60;99.90;;;;;;5076334;28;20044;-56
2022/10/19 07:26:40;;;;;;;19.25;4.03;;;12.60;99.90;;;;;;5075270;28;20049;-60
2022/10/19 07:29:07;;;;;;;23.27;4.28;;;12.60;99.90;;;;;;5076011;28;20036;-58
2022/10/19 07:31:34;;;;;;;19.38;3.83;;;12.70;99.90;;;;;;5074869;28;20041;-57
2022/10/19 07:34:01;;;;;;;15.23;3.75;;;12.70;99.90;;;;;;5076235;28;20092;-58
2022/10/19 07:36:27;;;;;;;18.23;3.95;;;12.70;99.90;;;;;;5076121;28;20071;-53
2022/10/19 07:38:54;;;;;;;18.42;4.38;;;12.80;99.90;;;;;;5076162;28;20047;-54
2022/10/19 07:41:21;;;;;;;23.83;5.18;;;12.80;99.90;;;;;;5075999;28;20131;-56
2022/10/19 07:43:47;;;;;;;19.35;4.47;;;12.90;99.90;;;;;;5074786;28;20427;-56
2022/10/19 07:46:14;;;;;;;15.60;3.63;;;12.90;99.90;;;;;;5076050;28;20036;-58
2022/10/19 07:48:41;;;;;;;20.38;4.28;;;12.90;99.90;;;;;;5075682;28;20033;-52
2022/10/19 07:51:08;;;;;;;20.20;4.07;;;13.00;99.90;;;;;;5076121;28;20064;-58
2022/10/19 07:53:34;;;;;;;15.57;3.70;;;13.00;99.90;;;;;;5075528;28;20044;-57
2022/10/19 07:56:01;;;;;;;19.27;3.65;;;13.00;99.90;;;;;;5075119;28;20064;-57
2022/10/19 07:58:28;;;;;;;23.73;5.85;;;13.10;99.90;;;;;;5075718;28;20452;-59
2022/10/19 08:00:55;;;;;;;17.00;3.83;;;13.10;99.90;;;;;;5074346;28;20052;-58
2022/10/19 08:03:21;;;;;;;23.85;4.40;;;13.20;99.90;;;;;;5075403;28;20060;-57
2022/10/19 08:06:09;;;;;;;22.70;4.10;;;13.20;99.90;;;;;;5073633;28;20045;-59
2022/10/19 08:08:36;;;;;;;14.02;3.72;;;13.30;99.90;;;;;;5074496;28;20483;-56
2022/10/19 08:11:03;;;;;;;20.63;4.18;;;13.40;99.90;;;;;;5075403;28;20045;-56
2022/10/19 08:13:29;;;;;;;19.17;4.45;;;13.40;99.90;;;;;;5075310;28;20492;-58
2022/10/19 08:15:56;;;;;;;18.40;3.85;;;13.50;99.90;;;;;;5075287;28;20051;-58
2022/10/19 08:18:23;;;;;;;17.30;4.07;;;13.50;99.90;;;;;;5073684;28;20036;-54
2022/10/19 08:20:50;;;;;;;26.98;4.82;;;13.50;99.90;;;;;;5073816;28;20072;-54
2022/10/19 08:23:16;;;;;;;19.98;4.47;;;13.60;99.90;;;;;;5073702;28;20075;-57
2022/10/19 08:25:43;;;;;;;21.98;4.03;;;13.60;99.90;;;;;;5073602;28;20048;-54
2022/10/19 08:28:10;;;;;;;19.05;4.53;;;13.60;99.90;;;;;;5073528;28;20044;-59
2022/10/19 08:30:36;;;;;;;20.92;4.50;;;13.70;99.90;;;;;;5073686;28;20072;-57
2022/10/19 08:33:06;;;;;;;27.88;4.35;;;13.70;99.90;;;;;;5074265;28;20132;-57
2022/10/19 08:35:32;;;;;;;20.70;4.60;;;13.80;99.90;;;;;;5074777;28;20037;-57
2022/10/19 08:37:59;;;;;;;20.83;4.38;;;13.80;99.90;;;;;;5074567;28;20074;-58
2022/10/19 08:40:28;;;;;;;23.58;4.80;;;13.90;99.90;;;;;;5074664;28;20116;-56
2022/10/19 08:42:55;;;;;;;15.10;3.83;;;13.90;99.90;;;;;;5075155;28;20048;-59
2022/10/19 08:45:22;;;;;;;23.35;5.80;;;14.00;99.90;;;;;;5074447;28;20131;-59
2022/10/19 08:47:48;;;;;;;21.48;4.30;;;14.10;99.90;;;;;;5074607;28;20037;-58
2022/10/19 08:50:15;;;;;;;16.02;3.95;;;14.20;99.90;;;;;;5073601;28;20040;-57
2022/10/19 08:52:42;;;;;;;23.38;3.95;;;14.20;99.90;;;;;;5074403;28;20044;-56
2022/10/19 08:55:10;;;;;;;20.73;4.50;;;14.20;99.90;;;;;;5073244;28;20392;-59
2022/10/19 08:57:42;;;;;;;20.17;4.35;;;14.30;99.90;;;;;;5075055;28;20068;-58
2022/10/19 09:00:08;;;;;;;19.50;4.55;;;14.30;99.90;;;;;;5073498;28;20076;-58
2022/10/19 09:02:35;;;;;;;18.88;4.05;;;14.30;99.90;;;;;;5073941;28;20052;-57
2022/10/19 09:05:02;;;;;;;19.20;4.60;;;14.30;99.90;;;;;;5074019;28;20036;-57
2022/10/19 09:07:29;;;;;;;22.30;4.70;;;14.40;99.90;;;;;;5073408;28;20430;-59
2022/10/19 09:09:56;;;;;;;21.13;4.47;;;14.40;99.90;;;;;;5068652;28;20043;-59
2022/10/19 09:12:23;;;;;;;17.65;4.60;;;14.40;99.90;;;;;;5071380;28;20067;-58
2022/10/19 09:14:49;;;;;;;22.17;4.72;;;14.40;99.90;;;;;;5061119;28;20082;-58
2022/10/19 09:17:16;;;;;;;14.73;4.47;;;14.50;99.90;;;;;;5061740;28;20453;-58
2022/10/19 09:19:43;;;;;;;24.45;4.75;;;14.50;99.90;;;;;;5062236;28;20453;-59
2022/10/19 09:22:10;;;;;;;17.75;4.72;;;14.50;99.90;;;;;;5070048;28;20060;-56
2022/10/19 09:24:36;;;;;;;19.27;4.38;;;14.50;99.90;;;;;;5073993;28;20127;-59
2022/10/19 09:27:03;;;;;;;21.88;5.07;;;14.60;99.90;;;;;;5073894;28;20040;-56
2022/10/19 09:29:30;;;;;;;16.58;4.15;;;14.60;99.90;;;;;;5073753;28;20095;-60
2022/10/19 09:31:57;;;;;;;21.73;5.18;;;14.60;99.90;;;;;;5073675;28;20040;-57
2022/10/19 09:34:28;;;;;;;18.85;3.90;;;14.60;99.90;;;;;;5073482;28;20036;-57
2022/10/19 09:36:56;;;;;;;20.20;4.38;;;14.60;99.90;;;;;;5072818;28;20444;-59
2022/10/19 09:39:23;;;;;;;22.98;5.55;;;14.70;99.90;;;;;;5072349;28;20098;-60
2022/10/19 09:41:54;;;;;;;28.65;5.95;;;14.70;99.90;;;;;;5074007;28;20051;-57
2022/10/19 09:44:21;;;;;;;26.27;5.28;;;14.80;99.90;;;;;;5073753;28;20412;-58
2022/10/19 09:46:50;;;;;;;19.27;4.75;;;14.80;99.90;;;;;;5072269;28;20446;-58
2022/10/19 09:49:18;;;;;;;18.23;5.10;;;14.90;99.90;;;;;;5072802;28;20037;-58
2022/10/19 09:51:45;;;;;;;23.48;4.97;;;14.90;99.90;;;;;;5073196;28;20037;-55
2022/10/19 09:54:12;;;;;;;21.73;4.50;;;15.00;99.90;;;;;;5073199;28;20041;-56
2022/10/19 09:56:39;;;;;;;20.23;5.35;;;15.10;99.90;;;;;;5072663;28;20068;-57
2022/10/19 09:59:06;;;;;;;17.85;5.22;;;15.10;99.90;;;;;;5073263;28;20487;-58
2022/10/19 10:01:32;;;;;;;22.20;4.82;;;15.20;99.90;;;;;;5073337;28;20040;-58
2022/10/19 10:04:08;;;;;;;21.85;5.00;;;15.30;99.90;;;;;;5050962;28;20128;-56
2022/10/19 10:06:35;;;;;;;17.70;5.00;;;15.30;99.90;;;;;;5071205;28;20032;-60
2022/10/19 10:09:02;;;;;;;19.33;4.32;;;15.30;99.90;;;;;;5072992;28;20037;-60
2022/10/19 10:11:29;;;;;;;20.98;5.38;;;15.30;99.90;;;;;;5071036;28;20036;-59
2022/10/19 10:13:56;;;;;;;22.60;5.20;;;15.30;99.90;;;;;;5072962;28;20102;-59
2022/10/19 10:16:22;;;;;;;16.27;4.32;;;15.30;99.90;;;;;;5073038;28;20040;-56
2022/10/19 10:18:49;;;;;;;20.25;4.00;;;15.30;99.90;;;;;;5073954;28;20127;-59
2022/10/19 10:21:16;;;;;;;15.55;4.78;;;15.30;99.90;;;;;;5075954;28;20047;-59
2022/10/19 10:23:45;;;;;;;18.67;5.50;;;15.30;99.90;;;;;;5076098;28;20098;-58
2022/10/19 10:26:11;;;;;;;17.63;4.82;;;15.30;99.90;;;;;;5077161;28;20456;-60
2022/10/19 10:28:38;;;;;;;22.25;5.32;;;15.30;99.90;;;;;;5076505;28;20483;-57
2022/10/19 10:31:05;;;;;;;21.63;4.68;;;15.40;99.90;;;;;;5077095;28;20082;-56
2022/10/19 10:33:32;;;;;;;19.02;4.72;;;15.50;99.90;;;;;;5076847;28;20046;-58
2022/10/19 10:36:10;;;;;;;20.98;4.82;;;15.50;99.90;;;;;;5073971;28;20537;-57
2022/10/19 10:38:36;;;;;;;19.40;5.00;;;15.60;99.90;;;;;;5076774;28;20507;-57
2022/10/19 10:41:04;;;;;;;20.25;4.97;;;15.60;99.90;;;;;;5076374;28;20514;-59
2022/10/19 10:43:31;;;;;;;19.02;5.50;;;15.60;99.90;;;;;;5075411;28;20056;-58
2022/10/19 10:45:57;;;;;;;20.63;5.45;;;15.70;99.90;;;;;;5076025;28;20541;-56
2022/10/19 10:48:24;;;;;;;15.48;4.70;;;15.70;99.90;;;;;;5075296;28;20036;-55
2022/10/19 10:50:51;;;;;;;20.55;4.72;;;15.60;99.90;;;;;;5076106;28;20127;-58
2022/10/19 10:53:18;;;;;;;16.73;4.68;;;15.60;99.90;;;;;;5076555;28;20389;-57
2022/10/19 10:55:45;;;;;;;20.05;5.43;;;15.60;99.90;;;;;;5076626;28;20115;-59
2022/10/19 10:58:11;;;;;;;23.60;5.00;;;15.60;99.90;;;;;;5076020;28;20075;-54
2022/10/19 11:00:39;;;;;;;17.80;4.55;;;15.60;99.90;;;;;;5075370;28;20044;-58
2022/10/19 11:03:06;;;;;;;18.27;4.85;;;15.60;99.90;;;;;;5075549;28;20052;-57
2022/10/19 11:05:33;;;;;;;20.10;4.80;;;15.70;99.90;;;;;;5076276;28;20094;-60
2022/10/19 11:07:59;;;;;;;20.33;4.47;;;15.70;99.90;;;;;;5076172;28;20063;-59
2022/10/19 11:10:26;;;;;;;19.83;4.90;;;15.70;99.90;;;;;;5075610;28;20033;-59
2022/10/19 11:12:53;;;;;;;21.67;5.53;;;15.80;99.90;;;;;;5072360;28;20036;-55
2022/10/19 11:15:19;;;;;;;23.58;4.85;;;15.80;99.90;;;;;;5073300;28;20060;-58
2022/10/19 11:17:46;;;;;;;19.65;4.80;;;15.90;99.90;;;;;;5075947;28;20048;-58
2022/10/19 11:20:13;;;;;;;20.50;5.38;;;15.90;99.90;;;;;;5058046;28;20053;-56
2022/10/19 11:22:40;;;;;;;18.90;4.75;;;15.90;99.90;;;;;;5075823;28;20051;-58
2022/10/19 11:25:07;;;;;;;22.17;5.10;;;15.90;99.90;;;;;;5075856;28;20456;-56
2022/10/19 11:27:34;;;;;;;28.10;4.93;;;15.90;99.90;;;;;;5075954;28;20072;-58
2022/10/19 11:30:02;;;;;;;23.90;4.95;;;15.90;99.90;;;;;;5075147;28;20041;-58
2022/10/19 11:32:28;;;;;;;17.27;4.57;;;16.00;99.90;;;;;;5075812;28;20044;-59
2022/10/19 11:34:55;;;;;;;23.92;5.20;;;16.00;99.90;;;;;;5075633;28;20043;-56
2022/10/19 11:37:22;;;;;;;15.90;4.18;;;16.10;99.90;;;;;;5075957;28;20488;-57
2022/10/19 11:39:49;;;;;;;19.08;4.10;;;16.00;99.90;;;;;;5075809;28;20044;-59
2022/10/19 11:42:15;;;;;;;22.90;5.10;;;16.10;99.90;;;;;;5075094;28;20040;-57
2022/10/19 11:44:42;;;;;;;24.90;5.30;;;16.10;99.90;;;;;;5075595;28;20118;-59
2022/10/19 11:47:09;;;;;;;24.60;5.13;;;16.00;99.90;;;;;;5075611;28;20040;-59
2022/10/19 11:49:35;;;;;;;19.13;4.55;;;16.00;99.90;;;;;;5075638;28;20068;-58
2022/10/19 11:52:02;;;;;;;25.35;5.05;;;16.00;99.90;;;;;;5073445;28;20072;-59
2022/10/19 11:54:29;;;;;;;21.35;4.80;;;15.90;99.90;;;;;;5075295;28;20399;-60
2022/10/19 11:56:56;;;;;;;21.15;4.78;;;15.90;99.90;;;;;;5074678;28;20044;-59
2022/10/19 11:59:31;;;;;;;17.75;4.38;;;16.00;99.90;;;;;;5075321;28;20036;-56
2022/10/19 12:01:57;;;;;;;16.30;4.63;;;16.00;99.90;;;;;;5075091;28;20064;-56
2022/10/19 12:04:24;;;;;;;22.63;4.90;;;16.00;99.90;;;;;;5074638;28;20047;-60
2022/10/19 12:06:51;;;;;;;21.95;5.20;;;16.00;99.90;;;;;;5075181;28;20072;-57
2022/10/19 12:09:18;;;;;;;22.02;4.70;;;15.90;99.90;;;;;;5075066;28;20044;-57
2022/10/19 12:11:44;;;;;;;21.90;4.78;;;15.90;99.90;;;;;;5074366;28;20072;-58
2022/10/19 12:14:11;;;;;;;19.98;5.00;;;15.90;99.90;;;;;;5075027;28;20033;-60
2022/10/19 12:16:38;;;;;;;22.13;4.60;;;15.90;99.90;;;;;;5074212;28;20044;-55
2022/10/19 12:19:04;;;;;;;16.20;4.35;;;15.90;99.90;;;;;;5074812;28;20056;-57
2022/10/19 12:21:31;;;;;;;21.30;5.05;;;15.90;99.90;;;;;;5073458;28;20049;-60
2022/10/19 12:23:58;;;;;;;16.48;4.38;;;16.00;99.90;;;;;;5073680;28;20076;-61
2022/10/19 12:26:25;;;;;;;28.73;5.30;;;16.00;99.90;;;;;;5074723;28;20076;-55
2022/10/19 12:28:51;;;;;;;21.13;4.95;;;16.10;99.90;;;;;;5074786;28;20068;-59
2022/10/19 12:31:18;;;;;;;20.05;5.13;;;16.20;99.90;;;;;;5068225;28;20123;-59
2022/10/19 12:33:46;;;;;;;24.42;4.85;;;16.30;99.90;;;;;;5074531;28;20075;-56
2022/10/19 12:36:12;;;;;;;18.73;4.28;;;16.40;99.90;;;;;;5068154;28;20444;-58